sensor_id;sensor_type;location;lat;lon;timestamp;temperature;humidity
5429;DHT22;2737;52.386;9.980;2024-02-16T00:02:00;10.90;99.90
5429;DHT22;2737;52.386;9.980;2024-02-16T00:04:28;10.90;99.90
5429;DHT22;2737;52.386;9.980;2024-02-16T00:06:55;10.90;99.90
5429;DHT22;2737;52.386;9.980;2024-02-16T00:09:22;10.90;99.90
5429;DHT22;2737;52.386;9.980;2024-02-16T00:11:49;10.90;99.90
5429;DHT22;2737;52.386;9.980;2024-02-16T00:14:18;10.90;99.90
5429;DHT22;2737;52.386;9.980;2024-02-16T00:16:47;10.90;99.90
5429;DHT22;2737;52.386;9.980;2024-02-16T00:19:16;11.00;99.90
5429;DHT22;2737;52.386;9.980;2024-02-16T00:21:43;11.00;99.90
5429;DHT22;2737;52.386;9.980;2024-02-16T00:24:10;11.00;99.90
5429;DHT22;2737;52.386;9.980;2024-02-16T00:26:37;11.00;99.90
5429;DHT22;2737;52.386;9.980;2024-02-16T00:29:05;11.00;99.90
5429;DHT22;2737;52.386;9.980;2024-02-16T00:31:32;10.90;99.90
5429;DHT22;2737;52.386;9.980;2024-02-16T00:33:59;10.90;99.90
5429;DHT22;2737;52.386;9.980;2024-02-16T00:36:28;10.90;99.90
5429;DHT22;2737;52.386;9.980;2024-02-16T00:38:56;10.90;99.90
5429;DHT22;2737;52.386;9.980;2024-02-16T00:41:23;10.90;99.90
5429;DHT22;2737;52.386;9.980;2024-02-16T00:43:50;10.80;99.90
5429;DHT22;2737;52.386;9.980;2024-02-16T00:46:17;10.80;99.90
5429;DHT22;2737;52.386;9.980;2024-02-16T00:48:44;10.70;99.90
5429;DHT22;2737;52.386;9.980;2024-02-16T00:51:12;10.70;99.90
5429;DHT22;2737;52.386;9.980;2024-02-16T00:53:40;10.70;99.90
5429;DHT22;2737;52.386;9.980;2024-02-16T00:56:07;10.70;99.90
5429;DHT22;2737;52.386;9.980;2024-02-16T00:58:35;10.60;99.90
5429;DHT22;2737;52.386;9.980;2024-02-16T01:01:03;10.60;99.90
5429;DHT22;2737;52.386;9.980;2024-02-16T01:03:30;10.60;99.90
5429;DHT22;2737;52.386;9.980;2024-02-16T01:05:57;10.50;99.90
5429;DHT22;2737;52.386;9.980;2024-02-16T01:08:24;10.50;99.90
5429;DHT22;2737;52.386;9.980;2024-02-16T01:10:55;10.50;99.90
5429;DHT22;2737;52.386;9.980;2024-02-16T01:13:22;10.50;99.90
5429;DHT22;2737;52.386;9.980;2024-02-16T01:15:49;10.40;99.90
5429;DHT22;2737;52.386;9.980;2024-02-16T01:18:16;10.40;99.90
5429;DHT22;2737;52.386;9.980;2024-02-16T01:20:43;10.40;99.90
5429;DHT22;2737;52.386;9.980;2024-02-16T01:23:10;10.50;99.90
5429;DHT22;2737;52.386;9.980;2024-02-16T01:25:37;10.40;99.90
5429;DHT22;2737;52.386;9.980;2024-02-16T01:28:05;10.40;99.90
5429;DHT22;2737;52.386;9.980;2024-02-16T01:30:32;10.40;99.90
5429;DHT22;2737;52.386;9.980;2024-02-16T01:32:59;10.30;99.90
5429;DHT22;2737;52.386;9.980;2024-02-16T01:35:27;10.30;99.90
5429;DHT22;2737;52.386;9.980;2024-02-16T01:37:54;10.30;99.90
5429;DHT22;2737;52.386;9.980;2024-02-16T01:40:21;10.30;99.90
5429;DHT22;2737;52.386;9.980;2024-02-16T01:42:51;10.20;99.90
5429;DHT22;2737;52.386;9.980;2024-02-16T01:45:20;10.30;99.90
5429;DHT22;2737;52.386;9.980;2024-02-16T01:47:49;10.20;99.90
5429;DHT22;2737;52.386;9.980;2024-02-16T01:50:18;10.10;99.90
5429;DHT22;2737;52.386;9.980;2024-02-16T01:52:47;10.10;99.90
5429;DHT22;2737;52.386;9.980;2024-02-16T01:55:14;10.10;99.90
5429;DHT22;2737;52.386;9.980;2024-02-16T01:57:44;10.10;99.90
5429;DHT22;2737;52.386;9.980;2024-02-16T02:00:12;10.10;99.90
5429;DHT22;2737;52.386;9.980;2024-02-16T02:02:44;10.00;99.90
5429;DHT22;2737;52.386;9.980;2024-02-16T02:05:11;10.00;99.90
5429;DHT22;2737;52.386;9.980;2024-02-16T02:07:41;10.00;99.90
5429;DHT22;2737;52.386;9.980;2024-02-16T02:10:09;10.00;99.90
5429;DHT22;2737;52.386;9.980;2024-02-16T02:12:38;10.00;99.90
5429;DHT22;2737;52.386;9.980;2024-02-16T02:15:05;10.00;99.90
5429;DHT22;2737;52.386;9.980;2024-02-16T02:17:32;10.00;99.90
5429;DHT22;2737;52.386;9.980;2024-02-16T02:20:02;10.00;99.90
5429;DHT22;2737;52.386;9.980;2024-02-16T02:22:33;10.00;99.90
5429;DHT22;2737;52.386;9.980;2024-02-16T02:25:00;9.90;99.90
5429;DHT22;2737;52.386;9.980;2024-02-16T02:27:28;9.90;99.90
5429;DHT22;2737;52.386;9.980;2024-02-16T02:29:55;9.90;99.90
5429;DHT22;2737;52.386;9.980;2024-02-16T02:32:22;9.90;99.90
5429;DHT22;2737;52.386;9.980;2024-02-16T02:34:49;9.90;99.90
5429;DHT22;2737;52.386;9.980;2024-02-16T02:37:16;9.90;99.90
5429;DHT22;2737;52.386;9.980;2024-02-16T02:39:44;9.90;99.90
5429;DHT22;2737;52.386;9.980;2024-02-16T02:42:11;9.80;99.90
5429;DHT22;2737;52.386;9.980;2024-02-16T02:44:38;9.80;99.90
5429;DHT22;2737;52.386;9.980;2024-02-16T02:47:06;9.90;99.90
5429;DHT22;2737;52.386;9.980;2024-02-16T02:49:33;9.80;99.90
5429;DHT22;2737;52.386;9.980;2024-02-16T02:52:00;9.80;99.90
5429;DHT22;2737;52.386;9.980;2024-02-16T02:54:27;9.80;99.90
5429;DHT22;2737;52.386;9.980;2024-02-16T02:56:56;9.80;99.90
5429;DHT22;2737;52.386;9.980;2024-02-16T02:59:23;9.80;99.90
5429;DHT22;2737;52.386;9.980;2024-02-16T03:01:50;9.80;99.90
5429;DHT22;2737;52.386;9.980;2024-02-16T03:04:17;9.90;99.90
5429;DHT22;2737;52.386;9.980;2024-02-16T03:06:44;9.90;99.90
5429;DHT22;2737;52.386;9.980;2024-02-16T03:09:11;9.90;99.90
5429;DHT22;2737;52.386;9.980;2024-02-16T03:11:38;9.80;99.90
5429;DHT22;2737;52.386;9.980;2024-02-16T03:14:06;9.80;99.90
5429;DHT22;2737;52.386;9.980;2024-02-16T03:16:33;9.80;99.90
5429;DHT22;2737;52.386;9.980;2024-02-16T03:19:01;9.80;99.90
5429;DHT22;2737;52.386;9.980;2024-02-16T03:21:27;9.80;99.90
5429;DHT22;2737;52.386;9.980;2024-02-16T03:23:54;9.80;99.90
5429;DHT22;2737;52.386;9.980;2024-02-16T03:26:21;9.90;99.90
5429;DHT22;2737;52.386;9.980;2024-02-16T03:28:48;9.90;99.90
5429;DHT22;2737;52.386;9.980;2024-02-16T03:31:22;9.90;99.90
5429;DHT22;2737;52.386;9.980;2024-02-16T03:33:49;10.00;99.90
5429;DHT22;2737;52.386;9.980;2024-02-16T03:36:17;10.00;99.90
5429;DHT22;2737;52.386;9.980;2024-02-16T03:38:45;10.10;99.90
5429;DHT22;2737;52.386;9.980;2024-02-16T03:41:13;10.10;99.90
5429;DHT22;2737;52.386;9.980;2024-02-16T03:43:42;10.10;99.90
5429;DHT22;2737;52.386;9.980;2024-02-16T03:46:09;10.20;99.90
5429;DHT22;2737;52.386;9.980;2024-02-16T03:48:38;10.20;99.90
5429;DHT22;2737;52.386;9.980;2024-02-16T03:51:05;10.20;99.90
5429;DHT22;2737;52.386;9.980;2024-02-16T03:53:33;10.20;99.90
5429;DHT22;2737;52.386;9.980;2024-02-16T03:56:00;10.30;99.90
5429;DHT22;2737;52.386;9.980;2024-02-16T03:58:27;10.30;99.90
5429;DHT22;2737;52.386;9.980;2024-02-16T04:00:54;10.40;99.90
5429;DHT22;2737;52.386;9.980;2024-02-16T04:03:21;10.40;99.90
5429;DHT22;2737;52.386;9.980;2024-02-16T04:05:49;10.40;99.90
5429;DHT22;2737;52.386;9.980;2024-02-16T04:08:18;10.30;99.90
5429;DHT22;2737;52.386;9.980;2024-02-16T04:10:45;10.40;99.90
5429;DHT22;2737;52.386;9.980;2024-02-16T04:13:13;10.30;99.90
5429;DHT22;2737;52.386;9.980;2024-02-16T04:15:40;10.30;99.90
5429;DHT22;2737;52.386;9.980;2024-02-16T04:18:07;10.40;99.90
5429;DHT22;2737;52.386;9.980;2024-02-16T04:20:34;10.30;99.90
5429;DHT22;2737;52.386;9.980;2024-02-16T04:23:03;10.40;99.90
5429;DHT22;2737;52.386;9.980;2024-02-16T04:25:30;10.40;99.90
5429;DHT22;2737;52.386;9.980;2024-02-16T04:27:57;10.50;99.90
5429;DHT22;2737;52.386;9.980;2024-02-16T04:30:24;10.40;99.90
5429;DHT22;2737;52.386;9.980;2024-02-16T04:32:51;10.40;99.90
5429;DHT22;2737;52.386;9.980;2024-02-16T04:35:18;10.40;99.90
5429;DHT22;2737;52.386;9.980;2024-02-16T04:37:45;10.40;99.90
5429;DHT22;2737;52.386;9.980;2024-02-16T04:40:14;10.40;99.90
5429;DHT22;2737;52.386;9.980;2024-02-16T04:42:41;10.40;99.90
5429;DHT22;2737;52.386;9.980;2024-02-16T04:45:11;10.40;99.90
5429;DHT22;2737;52.386;9.980;2024-02-16T04:47:38;10.40;99.90
5429;DHT22;2737;52.386;9.980;2024-02-16T04:50:06;10.40;99.90
5429;DHT22;2737;52.386;9.980;2024-02-16T04:52:37;10.40;99.90
5429;DHT22;2737;52.386;9.980;2024-02-16T04:55:06;10.40;99.90
5429;DHT22;2737;52.386;9.980;2024-02-16T04:57:35;10.40;99.90
5429;DHT22;2737;52.386;9.980;2024-02-16T05:00:03;10.40;99.90
5429;DHT22;2737;52.386;9.980;2024-02-16T05:02:30;10.50;99.90
5429;DHT22;2737;52.386;9.980;2024-02-16T05:04:57;10.50;99.90
5429;DHT22;2737;52.386;9.980;2024-02-16T05:07:24;10.60;99.90
5429;DHT22;2737;52.386;9.980;2024-02-16T05:09:51;10.60;99.90
5429;DHT22;2737;52.386;9.980;2024-02-16T05:12:23;10.60;99.90
5429;DHT22;2737;52.386;9.980;2024-02-16T05:14:52;10.60;99.90
5429;DHT22;2737;52.386;9.980;2024-02-16T05:17:19;10.70;99.90
5429;DHT22;2737;52.386;9.980;2024-02-16T05:19:48;10.70;99.90
5429;DHT22;2737;52.386;9.980;2024-02-16T05:22:15;10.70;99.90
5429;DHT22;2737;52.386;9.980;2024-02-16T05:24:43;10.70;99.90
5429;DHT22;2737;52.386;9.980;2024-02-16T05:27:10;10.70;99.90
5429;DHT22;2737;52.386;9.980;2024-02-16T05:29:37;10.70;99.90
5429;DHT22;2737;52.386;9.980;2024-02-16T05:32:06;10.80;99.90
5429;DHT22;2737;52.386;9.980;2024-02-16T05:34:33;10.80;99.90
5429;DHT22;2737;52.386;9.980;2024-02-16T05:37:04;10.80;99.90
5429;DHT22;2737;52.386;9.980;2024-02-16T05:39:32;10.70;99.90
5429;DHT22;2737;52.386;9.980;2024-02-16T05:42:01;10.80;99.90
5429;DHT22;2737;52.386;9.980;2024-02-16T05:44:29;10.80;99.90
5429;DHT22;2737;52.386;9.980;2024-02-16T05:46:58;10.80;99.90
5429;DHT22;2737;52.386;9.980;2024-02-16T05:49:26;10.80;99.90
5429;DHT22;2737;52.386;9.980;2024-02-16T05:51:53;10.80;99.90
5429;DHT22;2737;52.386;9.980;2024-02-16T05:54:40;10.80;99.90
5429;DHT22;2737;52.386;9.980;2024-02-16T05:57:08;10.80;99.90
5429;DHT22;2737;52.386;9.980;2024-02-16T05:59:35;10.70;99.90
5429;DHT22;2737;52.386;9.980;2024-02-16T06:02:03;10.70;99.90
5429;DHT22;2737;52.386;9.980;2024-02-16T06:04:32;10.70;99.90
5429;DHT22;2737;52.386;9.980;2024-02-16T06:06:59;10.70;99.90
5429;DHT22;2737;52.386;9.980;2024-02-16T06:09:26;10.60;99.90
5429;DHT22;2737;52.386;9.980;2024-02-16T06:12:01;10.60;99.90
5429;DHT22;2737;52.386;9.980;2024-02-16T06:14:29;10.50;99.90
5429;DHT22;2737;52.386;9.980;2024-02-16T06:16:56;10.50;99.90
5429;DHT22;2737;52.386;9.980;2024-02-16T06:19:24;10.50;99.90
5429;DHT22;2737;52.386;9.980;2024-02-16T06:21:52;10.50;99.90
5429;DHT22;2737;52.386;9.980;2024-02-16T06:24:20;10.50;99.90
5429;DHT22;2737;52.386;9.980;2024-02-16T06:26:47;10.60;99.90
5429;DHT22;2737;52.386;9.980;2024-02-16T06:29:14;10.60;99.90
5429;DHT22;2737;52.386;9.980;2024-02-16T06:31:41;10.60;99.90
5429;DHT22;2737;52.386;9.980;2024-02-16T06:34:08;10.60;99.90
5429;DHT22;2737;52.386;9.980;2024-02-16T06:36:35;10.60;99.90
5429;DHT22;2737;52.386;9.980;2024-02-16T06:39:04;10.60;99.90
5429;DHT22;2737;52.386;9.980;2024-02-16T06:41:31;10.60;99.90
5429;DHT22;2737;52.386;9.980;2024-02-16T06:43:58;10.60;99.90
5429;DHT22;2737;52.386;9.980;2024-02-16T06:46:25;10.50;99.90
5429;DHT22;2737;52.386;9.980;2024-02-16T06:48:53;10.50;99.90
5429;DHT22;2737;52.386;9.980;2024-02-16T06:51:22;10.50;99.90
5429;DHT22;2737;52.386;9.980;2024-02-16T06:53:49;10.50;99.90
5429;DHT22;2737;52.386;9.980;2024-02-16T06:56:18;10.50;99.90
5429;DHT22;2737;52.386;9.980;2024-02-16T06:58:45;10.50;99.90
5429;DHT22;2737;52.386;9.980;2024-02-16T07:01:13;10.60;99.90
5429;DHT22;2737;52.386;9.980;2024-02-16T07:03:40;10.60;99.90
5429;DHT22;2737;52.386;9.980;2024-02-16T07:06:07;10.70;99.90
5429;DHT22;2737;52.386;9.980;2024-02-16T07:08:35;10.80;99.90
5429;DHT22;2737;52.386;9.980;2024-02-16T07:11:03;10.80;99.90
5429;DHT22;2737;52.386;9.980;2024-02-16T07:13:32;10.80;99.90
5429;DHT22;2737;52.386;9.980;2024-02-16T07:15:59;10.80;99.90
5429;DHT22;2737;52.386;9.980;2024-02-16T07:18:26;10.80;99.90
5429;DHT22;2737;52.386;9.980;2024-02-16T07:20:54;10.80;99.90
5429;DHT22;2737;52.386;9.980;2024-02-16T07:23:21;10.90;99.90
5429;DHT22;2737;52.386;9.980;2024-02-16T07:25:48;11.00;99.90
5429;DHT22;2737;52.386;9.980;2024-02-16T07:28:15;11.00;99.90
5429;DHT22;2737;52.386;9.980;2024-02-16T07:30:43;11.10;99.90
5429;DHT22;2737;52.386;9.980;2024-02-16T07:33:10;11.20;99.90
5429;DHT22;2737;52.386;9.980;2024-02-16T07:35:37;11.20;99.90
5429;DHT22;2737;52.386;9.980;2024-02-16T07:38:05;11.20;99.90
5429;DHT22;2737;52.386;9.980;2024-02-16T07:40:32;11.10;99.90
5429;DHT22;2737;52.386;9.980;2024-02-16T07:43:00;11.10;99.90
5429;DHT22;2737;52.386;9.980;2024-02-16T07:45:27;11.00;99.90
5429;DHT22;2737;52.386;9.980;2024-02-16T07:47:56;11.00;99.90
5429;DHT22;2737;52.386;9.980;2024-02-16T07:50:23;11.00;99.90
5429;DHT22;2737;52.386;9.980;2024-02-16T07:52:50;11.10;99.90
5429;DHT22;2737;52.386;9.980;2024-02-16T07:55:17;11.10;99.90
5429;DHT22;2737;52.386;9.980;2024-02-16T07:57:46;11.20;99.90
5429;DHT22;2737;52.386;9.980;2024-02-16T08:00:13;11.20;99.90
5429;DHT22;2737;52.386;9.980;2024-02-16T08:02:42;11.20;99.90
5429;DHT22;2737;52.386;9.980;2024-02-16T08:05:11;11.20;99.90
5429;DHT22;2737;52.386;9.980;2024-02-16T08:07:39;11.20;99.90
5429;DHT22;2737;52.386;9.980;2024-02-16T08:10:07;11.20;99.90
5429;DHT22;2737;52.386;9.980;2024-02-16T08:12:34;11.20;99.90
5429;DHT22;2737;52.386;9.980;2024-02-16T08:15:03;11.20;99.90
5429;DHT22;2737;52.386;9.980;2024-02-16T08:17:32;11.20;99.90
5429;DHT22;2737;52.386;9.980;2024-02-16T08:20:00;11.30;99.90
5429;DHT22;2737;52.386;9.980;2024-02-16T08:22:29;11.40;99.90
5429;DHT22;2737;52.386;9.980;2024-02-16T08:24:56;11.70;99.90
5429;DHT22;2737;52.386;9.980;2024-02-16T08:27:23;11.90;99.90
5429;DHT22;2737;52.386;9.980;2024-02-16T08:29:51;11.90;99.90
5429;DHT22;2737;52.386;9.980;2024-02-16T08:32:18;12.00;99.90
5429;DHT22;2737;52.386;9.980;2024-02-16T08:34:46;12.10;99.90
5429;DHT22;2737;52.386;9.980;2024-02-16T08:37:16;12.20;99.90
5429;DHT22;2737;52.386;9.980;2024-02-16T08:39:44;12.40;99.90
5429;DHT22;2737;52.386;9.980;2024-02-16T08:42:11;12.50;99.90
5429;DHT22;2737;52.386;9.980;2024-02-16T08:44:38;12.50;99.90
5429;DHT22;2737;52.386;9.980;2024-02-16T08:47:06;12.60;99.90
5429;DHT22;2737;52.386;9.980;2024-02-16T08:49:33;12.70;99.90
5429;DHT22;2737;52.386;9.980;2024-02-16T08:52:00;12.70;99.90
5429;DHT22;2737;52.386;9.980;2024-02-16T08:54:28;12.70;99.90
5429;DHT22;2737;52.386;9.980;2024-02-16T08:56:57;12.70;99.90
5429;DHT22;2737;52.386;9.980;2024-02-16T08:59:24;12.70;99.90
5429;DHT22;2737;52.386;9.980;2024-02-16T09:01:51;12.70;99.90
5429;DHT22;2737;52.386;9.980;2024-02-16T09:04:18;12.70;99.90
5429;DHT22;2737;52.386;9.980;2024-02-16T09:06:45;12.70;99.90
5429;DHT22;2737;52.386;9.980;2024-02-16T09:09:12;12.60;99.90
5429;DHT22;2737;52.386;9.980;2024-02-16T09:11:40;12.70;99.90
5429;DHT22;2737;52.386;9.980;2024-02-16T09:14:09;12.70;99.90
5429;DHT22;2737;52.386;9.980;2024-02-16T09:16:36;12.70;99.90
5429;DHT22;2737;52.386;9.980;2024-02-16T09:19:03;12.70;99.90
5429;DHT22;2737;52.386;9.980;2024-02-16T09:21:30;12.70;99.90
5429;DHT22;2737;52.386;9.980;2024-02-16T09:23:57;12.80;99.90
5429;DHT22;2737;52.386;9.980;2024-02-16T09:26:26;12.80;99.90
5429;DHT22;2737;52.386;9.980;2024-02-16T09:28:56;12.80;99.90
5429;DHT22;2737;52.386;9.980;2024-02-16T09:31:24;12.80;99.90
5429;DHT22;2737;52.386;9.980;2024-02-16T09:33:52;12.80;99.90
5429;DHT22;2737;52.386;9.980;2024-02-16T09:36:19;12.80;99.90
5429;DHT22;2737;52.386;9.980;2024-02-16T09:38:46;12.80;99.90
5429;DHT22;2737;52.386;9.980;2024-02-16T09:41:13;12.80;99.90
5429;DHT22;2737;52.386;9.980;2024-02-16T09:43:41;12.90;99.90
5429;DHT22;2737;52.386;9.980;2024-02-16T09:46:09;12.90;99.90
5429;DHT22;2737;52.386;9.980;2024-02-16T09:48:39;12.90;99.90
5429;DHT22;2737;52.386;9.980;2024-02-16T09:51:09;13.00;99.90
5429;DHT22;2737;52.386;9.980;2024-02-16T09:53:36;13.10;99.90
5429;DHT22;2737;52.386;9.980;2024-02-16T09:56:05;13.20;99.90
5429;DHT22;2737;52.386;9.980;2024-02-16T09:58:34;13.20;99.90
5429;DHT22;2737;52.386;9.980;2024-02-16T10:01:02;13.30;99.90
5429;DHT22;2737;52.386;9.980;2024-02-16T10:03:30;13.40;99.90
5429;DHT22;2737;52.386;9.980;2024-02-16T10:06:07;13.40;99.90
5429;DHT22;2737;52.386;9.980;2024-02-16T10:08:34;13.40;99.90
5429;DHT22;2737;52.386;9.980;2024-02-16T10:11:02;13.50;99.90
5429;DHT22;2737;52.386;9.980;2024-02-16T10:13:30;13.50;99.90
5429;DHT22;2737;52.386;9.980;2024-02-16T10:16:07;13.50;99.90
5429;DHT22;2737;52.386;9.980;2024-02-16T10:18:35;13.60;99.90
5429;DHT22;2737;52.386;9.980;2024-02-16T10:21:03;13.70;99.90
5429;DHT22;2737;52.386;9.980;2024-02-16T10:23:31;13.80;99.90
5429;DHT22;2737;52.386;9.980;2024-02-16T10:25:58;13.80;99.90
5429;DHT22;2737;52.386;9.980;2024-02-16T10:28:28;13.90;99.90
5429;DHT22;2737;52.386;9.980;2024-02-16T10:30:58;13.90;99.90
5429;DHT22;2737;52.386;9.980;2024-02-16T10:33:27;14.00;99.90
5429;DHT22;2737;52.386;9.980;2024-02-16T10:35:56;14.00;99.90
5429;DHT22;2737;52.386;9.980;2024-02-16T10:38:24;14.00;99.90
5429;DHT22;2737;52.386;9.980;2024-02-16T10:40:54;14.00;99.90
5429;DHT22;2737;52.386;9.980;2024-02-16T10:43:23;14.00;99.90
5429;DHT22;2737;52.386;9.980;2024-02-16T10:45:51;14.00;99.90
5429;DHT22;2737;52.386;9.980;2024-02-16T10:48:19;14.00;99.90
5429;DHT22;2737;52.386;9.980;2024-02-16T10:50:46;14.00;99.90
5429;DHT22;2737;52.386;9.980;2024-02-16T10:53:21;14.10;99.90
5429;DHT22;2737;52.386;9.980;2024-02-16T10:55:49;14.10;99.90
5429;DHT22;2737;52.386;9.980;2024-02-16T10:58:18;14.10;99.90
5429;DHT22;2737;52.386;9.980;2024-02-16T11:00:52;14.10;99.90
5429;DHT22;2737;52.386;9.980;2024-02-16T11:03:22;14.10;99.90
5429;DHT22;2737;52.386;9.980;2024-02-16T11:05:51;14.10;99.90
5429;DHT22;2737;52.386;9.980;2024-02-16T11:08:19;14.10;99.90
5429;DHT22;2737;52.386;9.980;2024-02-16T11:11:05;14.10;99.90
5429;DHT22;2737;52.386;9.980;2024-02-16T11:13:35;14.10;99.90
5429;DHT22;2737;52.386;9.980;2024-02-16T11:16:06;14.20;99.90
5429;DHT22;2737;52.386;9.980;2024-02-16T11:18:38;14.20;99.90
5429;DHT22;2737;52.386;9.980;2024-02-16T11:21:06;14.20;99.90
5429;DHT22;2737;52.386;9.980;2024-02-16T11:23:35;14.20;99.90
5429;DHT22;2737;52.386;9.980;2024-02-16T11:26:04;14.20;99.90
5429;DHT22;2737;52.386;9.980;2024-02-16T11:28:34;14.30;99.90
5429;DHT22;2737;52.386;9.980;2024-02-16T11:31:02;14.30;99.90
5429;DHT22;2737;52.386;9.980;2024-02-16T11:33:29;14.40;99.90
5429;DHT22;2737;52.386;9.980;2024-02-16T11:35:56;14.40;99.90
5429;DHT22;2737;52.386;9.980;2024-02-16T11:38:24;14.50;99.90
5429;DHT22;2737;52.386;9.980;2024-02-16T11:40:56;14.50;99.90
5429;DHT22;2737;52.386;9.980;2024-02-16T11:43:23;14.50;99.90
5429;DHT22;2737;52.386;9.980;2024-02-16T11:45:52;14.50;99.90
5429;DHT22;2737;52.386;9.980;2024-02-16T11:48:20;14.50;99.90
5429;DHT22;2737;52.386;9.980;2024-02-16T11:50:48;14.50;99.90
5429;DHT22;2737;52.386;9.980;2024-02-16T11:53:17;14.50;99.90
5429;DHT22;2737;52.386;9.980;2024-02-16T11:55:48;14.60;99.90
5429;DHT22;2737;52.386;9.980;2024-02-16T11:58:16;14.60;99.90
5429;DHT22;2737;52.386;9.980;2024-02-16T12:00:44;14.60;99.90
5429;DHT22;2737;52.386;9.980;2024-02-16T12:03:18;14.60;99.90
5429;DHT22;2737;52.386;9.980;2024-02-16T12:05:50;14.70;99.90
5429;DHT22;2737;52.386;9.980;2024-02-16T12:08:17;14.70;99.90
5429;DHT22;2737;52.386;9.980;2024-02-16T12:10:46;14.70;99.90
5429;DHT22;2737;52.386;9.980;2024-02-16T12:13:13;14.80;99.90
5429;DHT22;2737;52.386;9.980;2024-02-16T12:15:41;14.90;99.90
5429;DHT22;2737;52.386;9.980;2024-02-16T12:18:08;14.90;99.90
5429;DHT22;2737;52.386;9.980;2024-02-16T12:20:36;14.90;99.90
5429;DHT22;2737;52.386;9.980;2024-02-16T12:23:11;14.90;99.90
5429;DHT22;2737;52.386;9.980;2024-02-16T12:25:38;15.00;99.90
5429;DHT22;2737;52.386;9.980;2024-02-16T12:28:05;15.10;99.90
5429;DHT22;2737;52.386;9.980;2024-02-16T12:30:33;15.10;99.90
5429;DHT22;2737;52.386;9.980;2024-02-16T12:33:01;15.20;99.90
5429;DHT22;2737;52.386;9.980;2024-02-16T12:35:28;15.20;99.90
5429;DHT22;2737;52.386;9.980;2024-02-16T12:37:56;15.20;99.90
5429;DHT22;2737;52.386;9.980;2024-02-16T12:40:23;15.20;99.90
5429;DHT22;2737;52.386;9.980;2024-02-16T12:42:51;15.30;99.90
5429;DHT22;2737;52.386;9.980;2024-02-16T12:45:18;15.30;99.90
5429;DHT22;2737;52.386;9.980;2024-02-16T12:47:44;15.30;99.90
5429;DHT22;2737;52.386;9.980;2024-02-16T12:50:12;15.20;99.90
5429;DHT22;2737;52.386;9.980;2024-02-16T12:52:39;15.30;99.90
5429;DHT22;2737;52.386;9.980;2024-02-16T12:55:08;15.20;99.90
5429;DHT22;2737;52.386;9.980;2024-02-16T12:57:36;15.20;99.90
5429;DHT22;2737;52.386;9.980;2024-02-16T13:00:04;15.20;99.90
5429;DHT22;2737;52.386;9.980;2024-02-16T13:02:31;15.20;99.90
5429;DHT22;2737;52.386;9.980;2024-02-16T13:04:58;15.20;99.90
5429;DHT22;2737;52.386;9.980;2024-02-16T13:07:25;15.20;99.90
5429;DHT22;2737;52.386;9.980;2024-02-16T13:09:52;15.20;99.90
5429;DHT22;2737;52.386;9.980;2024-02-16T13:12:21;15.20;99.90
5429;DHT22;2737;52.386;9.980;2024-02-16T13:14:50;15.20;99.90
5429;DHT22;2737;52.386;9.980;2024-02-16T13:17:17;15.20;99.90
5429;DHT22;2737;52.386;9.980;2024-02-16T13:19:44;15.20;99.90
5429;DHT22;2737;52.386;9.980;2024-02-16T13:22:11;15.20;99.90
5429;DHT22;2737;52.386;9.980;2024-02-16T13:24:38;15.10;99.90
5429;DHT22;2737;52.386;9.980;2024-02-16T13:27:06;15.10;99.90
5429;DHT22;2737;52.386;9.980;2024-02-16T13:29:34;15.10;99.90
5429;DHT22;2737;52.386;9.980;2024-02-16T13:32:01;15.10;99.90
5429;DHT22;2737;52.386;9.980;2024-02-16T13:34:29;15.00;99.90
5429;DHT22;2737;52.386;9.980;2024-02-16T13:36:56;15.00;99.90
5429;DHT22;2737;52.386;9.980;2024-02-16T13:39:23;15.00;99.90
5429;DHT22;2737;52.386;9.980;2024-02-16T13:41:52;15.00;99.90
5429;DHT22;2737;52.386;9.980;2024-02-16T13:44:22;15.00;99.90
5429;DHT22;2737;52.386;9.980;2024-02-16T13:46:50;15.00;99.90
5429;DHT22;2737;52.386;9.980;2024-02-16T13:49:17;15.00;99.90
5429;DHT22;2737;52.386;9.980;2024-02-16T13:51:44;15.10;99.90
5429;DHT22;2737;52.386;9.980;2024-02-16T13:54:13;15.10;99.90
5429;DHT22;2737;52.386;9.980;2024-02-16T13:56:40;15.10;99.90
5429;DHT22;2737;52.386;9.980;2024-02-16T13:59:07;15.20;99.90
5429;DHT22;2737;52.386;9.980;2024-02-16T14:01:34;15.20;99.90
5429;DHT22;2737;52.386;9.980;2024-02-16T14:04:04;15.20;99.90
5429;DHT22;2737;52.386;9.980;2024-02-16T14:06:31;15.20;99.90
5429;DHT22;2737;52.386;9.980;2024-02-16T14:08:58;15.10;99.90
5429;DHT22;2737;52.386;9.980;2024-02-16T14:11:25;15.10;99.90
5429;DHT22;2737;52.386;9.980;2024-02-16T14:13:52;15.00;99.90
5429;DHT22;2737;52.386;9.980;2024-02-16T14:16:19;15.10;99.90
5429;DHT22;2737;52.386;9.980;2024-02-16T14:18:46;15.10;99.90
5429;DHT22;2737;52.386;9.980;2024-02-16T14:21:15;15.10;99.90
5429;DHT22;2737;52.386;9.980;2024-02-16T14:23:42;15.10;99.90
5429;DHT22;2737;52.386;9.980;2024-02-16T14:26:09;15.10;99.90
5429;DHT22;2737;52.386;9.980;2024-02-16T14:28:37;15.10;99.90
5429;DHT22;2737;52.386;9.980;2024-02-16T14:31:04;15.10;99.90
5429;DHT22;2737;52.386;9.980;2024-02-16T14:33:32;15.10;99.90
5429;DHT22;2737;52.386;9.980;2024-02-16T14:36:00;15.10;99.90
5429;DHT22;2737;52.386;9.980;2024-02-16T14:38:28;15.10;99.90
5429;DHT22;2737;52.386;9.980;2024-02-16T14:40:56;15.10;99.90
5429;DHT22;2737;52.386;9.980;2024-02-16T14:43:23;15.00;99.90
5429;DHT22;2737;52.386;9.980;2024-02-16T14:45:50;15.00;99.90
5429;DHT22;2737;52.386;9.980;2024-02-16T14:48:17;14.90;99.90
5429;DHT22;2737;52.386;9.980;2024-02-16T14:50:44;14.90;99.90
5429;DHT22;2737;52.386;9.980;2024-02-16T14:53:11;14.90;99.90
5429;DHT22;2737;52.386;9.980;2024-02-16T14:55:40;14.80;99.90
5429;DHT22;2737;52.386;9.980;2024-02-16T14:58:07;14.90;99.90
5429;DHT22;2737;52.386;9.980;2024-02-16T15:00:34;14.90;99.90
5429;DHT22;2737;52.386;9.980;2024-02-16T15:03:01;14.80;99.90
5429;DHT22;2737;52.386;9.980;2024-02-16T15:05:28;14.80;99.90
5429;DHT22;2737;52.386;9.980;2024-02-16T15:07:55;14.80;99.90
5429;DHT22;2737;52.386;9.980;2024-02-16T15:10:23;14.80;99.90
5429;DHT22;2737;52.386;9.980;2024-02-16T15:12:51;14.80;99.90
5429;DHT22;2737;52.386;9.980;2024-02-16T15:15:18;14.70;99.90
5429;DHT22;2737;52.386;9.980;2024-02-16T15:17:45;14.80;99.90
5429;DHT22;2737;52.386;9.980;2024-02-16T15:20:13;14.70;99.90
5429;DHT22;2737;52.386;9.980;2024-02-16T15:22:40;14.70;99.90
5429;DHT22;2737;52.386;9.980;2024-02-16T15:25:08;14.70;99.90
5429;DHT22;2737;52.386;9.980;2024-02-16T15:27:36;14.70;99.90
5429;DHT22;2737;52.386;9.980;2024-02-16T15:30:06;14.70;99.90
5429;DHT22;2737;52.386;9.980;2024-02-16T15:32:33;14.60;99.90
5429;DHT22;2737;52.386;9.980;2024-02-16T15:35:00;14.60;99.90
5429;DHT22;2737;52.386;9.980;2024-02-16T15:37:28;14.60;99.90
5429;DHT22;2737;52.386;9.980;2024-02-16T15:39:55;14.50;99.90
5429;DHT22;2737;52.386;9.980;2024-02-16T15:42:27;14.40;99.90
5429;DHT22;2737;52.386;9.980;2024-02-16T15:44:55;14.40;99.90
5429;DHT22;2737;52.386;9.980;2024-02-16T15:47:23;14.40;99.90
5429;DHT22;2737;52.386;9.980;2024-02-16T15:49:50;14.40;99.90
5429;DHT22;2737;52.386;9.980;2024-02-16T15:52:17;14.30;99.90
5429;DHT22;2737;52.386;9.980;2024-02-16T15:54:44;14.30;99.90
5429;DHT22;2737;52.386;9.980;2024-02-16T15:57:11;14.30;99.90
5429;DHT22;2737;52.386;9.980;2024-02-16T15:59:38;14.30;99.90
5429;DHT22;2737;52.386;9.980;2024-02-16T16:02:05;14.30;99.90
5429;DHT22;2737;52.386;9.980;2024-02-16T16:04:34;14.30;99.90
5429;DHT22;2737;52.386;9.980;2024-02-16T16:07:01;14.30;99.90